Lakeville, Michigan
Current Conditions -  °F | °C
As of 8:53 PM on Tuesday 21 Oct 2014 (Local Time) from KPTK Reporting Station
Overcast Overcast  
Wind Chill: 35°   Ceiling: 2100
Heat Index: 43°   Visibility: 10mi
Dew Point: 34°   Wind: 16mph
Humidity: 71%   Direction: 10°N
Pressure: 30.17"   Gusts: NA
Location:  42.82°N, 83.15°W
Report Text: KPTK 220053Z 01014KT 10SM OVC021 06/01 A3017 RMK AO2 SLP222 T00610011
Loading
Personal Weather Stations






























Interactive Weather Map
Tropical Storm Tracking
New forecast layout! Learn more

10-Day Weather Forecast

Advertisements
Track Severe Weather on mobile